Coin, Iowa
Current Conditions -  °F | °C
As of 7:15 AM on Friday 24 Oct 2014 (Local Time) from KICL Reporting Station
Moderate Fog Moderate Fog  
Wind Chill: 59°   Ceiling: 200
Heat Index: 59°   Visibility: 0.25mi
Dew Point: 59°   Wind: 8mph
Humidity: 100%   Direction: 180°S
Pressure: 30.01"   Gusts: NA
Location:  40.65°N, 95.23°W
Report Text: KICL 241215Z AUTO 18007KT 1/4SM FG OVC002 15/15 A3001 RMK AO2
Loading
Personal Weather Stations






























Interactive Weather Map New forecast layout! Learn more

10-Day Weather Forecast

Advertisements
Track Severe Weather on mobile